sensor_id;sensor_type;location;lat;lon;timestamp;P1;durP1;ratioP1;P2;durP2;ratioP2
1701;SDS011;848;48.354;10.064;2023-08-20T00:01:40;12.93;;;10.82;;
1701;SDS011;848;48.354;10.064;2023-08-20T00:04:09;11.52;;;10.43;;
1701;SDS011;848;48.354;10.064;2023-08-20T00:06:37;12.25;;;10.70;;
1701;SDS011;848;48.354;10.064;2023-08-20T00:09:04;11.27;;;9.68;;
1701;SDS011;848;48.354;10.064;2023-08-20T00:11:33;10.43;;;9.43;;
1701;SDS011;848;48.354;10.064;2023-08-20T00:14:00;13.07;;;10.60;;
1701;SDS011;848;48.354;10.064;2023-08-20T00:16:27;17.45;;;10.40;;
1701;SDS011;848;48.354;10.064;2023-08-20T00:18:55;10.90;;;9.90;;
1701;SDS011;848;48.354;10.064;2023-08-20T00:21:24;11.55;;;10.35;;
1701;SDS011;848;48.354;10.064;2023-08-20T00:23:52;13.80;;;10.18;;
1701;SDS011;848;48.354;10.064;2023-08-20T00:26:19;11.15;;;10.15;;
1701;SDS011;848;48.354;10.064;2023-08-20T00:28:46;11.02;;;9.93;;
1701;SDS011;848;48.354;10.064;2023-08-20T00:31:14;13.10;;;9.90;;
1701;SDS011;848;48.354;10.064;2023-08-20T00:33:41;13.55;;;11.43;;
1701;SDS011;848;48.354;10.064;2023-08-20T00:36:08;10.57;;;9.48;;
1701;SDS011;848;48.354;10.064;2023-08-20T00:38:36;10.80;;;9.70;;
1701;SDS011;848;48.354;10.064;2023-08-20T00:41:03;12.18;;;10.02;;
1701;SDS011;848;48.354;10.064;2023-08-20T00:43:30;10.55;;;9.73;;
1701;SDS011;848;48.354;10.064;2023-08-20T00:45:58;11.80;;;10.73;;
1701;SDS011;848;48.354;10.064;2023-08-20T00:48:25;10.32;;;9.23;;
1701;SDS011;848;48.354;10.064;2023-08-20T00:50:52;12.18;;;10.55;;
1701;SDS011;848;48.354;10.064;2023-08-20T00:53:19;11.23;;;10.02;;
1701;SDS011;848;48.354;10.064;2023-08-20T00:55:48;10.77;;;9.68;;
1701;SDS011;848;48.354;10.064;2023-08-20T00:58:14;10.77;;;9.70;;
1701;SDS011;848;48.354;10.064;2023-08-20T01:00:41;10.40;;;9.50;;
1701;SDS011;848;48.354;10.064;2023-08-20T01:03:09;12.38;;;9.65;;
1701;SDS011;848;48.354;10.064;2023-08-20T01:05:37;10.88;;;9.82;;
1701;SDS011;848;48.354;10.064;2023-08-20T01:08:16;10.75;;;9.73;;
1701;SDS011;848;48.354;10.064;2023-08-20T01:10:55;10.63;;;9.63;;
1701;SDS011;848;48.354;10.064;2023-08-20T01:13:24;10.98;;;9.45;;
1701;SDS011;848;48.354;10.064;2023-08-20T01:15:51;11.10;;;10.00;;
1701;SDS011;848;48.354;10.064;2023-08-20T01:18:18;10.60;;;9.70;;
1701;SDS011;848;48.354;10.064;2023-08-20T01:20:45;11.25;;;10.15;;
1701;SDS011;848;48.354;10.064;2023-08-20T01:26:20;11.52;;;9.98;;
1701;SDS011;848;48.354;10.064;2023-08-20T01:29:00;12.00;;;9.45;;
1701;SDS011;848;48.354;10.064;2023-08-20T01:31:28;12.90;;;11.05;;
1701;SDS011;848;48.354;10.064;2023-08-20T01:33:56;10.90;;;9.15;;
1701;SDS011;848;48.354;10.064;2023-08-20T01:36:23;10.65;;;9.65;;
1701;SDS011;848;48.354;10.064;2023-08-20T01:38:50;13.85;;;10.55;;
1701;SDS011;848;48.354;10.064;2023-08-20T01:41:17;11.30;;;10.20;;
1701;SDS011;848;48.354;10.064;2023-08-20T01:43:44;11.30;;;9.93;;
1701;SDS011;848;48.354;10.064;2023-08-20T01:46:12;11.50;;;10.40;;
1701;SDS011;848;48.354;10.064;2023-08-20T01:48:39;11.05;;;9.95;;
1701;SDS011;848;48.354;10.064;2023-08-20T01:51:06;14.07;;;9.10;;
1701;SDS011;848;48.354;10.064;2023-08-20T01:53:33;14.32;;;10.50;;
1701;SDS011;848;48.354;10.064;2023-08-20T01:56:00;11.25;;;10.07;;
1701;SDS011;848;48.354;10.064;2023-08-20T01:58:27;9.80;;;8.90;;
1701;SDS011;848;48.354;10.064;2023-08-20T02:00:55;13.98;;;9.88;;
1701;SDS011;848;48.354;10.064;2023-08-20T02:03:24;10.15;;;9.25;;
1701;SDS011;848;48.354;10.064;2023-08-20T02:05:51;11.43;;;10.20;;
1701;SDS011;848;48.354;10.064;2023-08-20T02:08:17;11.48;;;9.35;;
1701;SDS011;848;48.354;10.064;2023-08-20T02:10:44;11.45;;;10.35;;
1701;SDS011;848;48.354;10.064;2023-08-20T02:13:11;12.18;;;10.88;;
1701;SDS011;848;48.354;10.064;2023-08-20T02:15:38;12.60;;;10.02;;
1701;SDS011;848;48.354;10.064;2023-08-20T02:18:05;11.82;;;10.60;;
1701;SDS011;848;48.354;10.064;2023-08-20T02:20:33;9.77;;;8.88;;
1701;SDS011;848;48.354;10.064;2023-08-20T02:23:00;11.25;;;10.10;;
1701;SDS011;848;48.354;10.064;2023-08-20T02:25:27;15.10;;;10.00;;
1701;SDS011;848;48.354;10.064;2023-08-20T02:27:54;13.52;;;9.27;;
1701;SDS011;848;48.354;10.064;2023-08-20T02:30:21;11.75;;;10.65;;
1701;SDS011;848;48.354;10.064;2023-08-20T02:32:48;13.73;;;9.93;;
1701;SDS011;848;48.354;10.064;2023-08-20T02:35:15;10.82;;;9.80;;
1701;SDS011;848;48.354;10.064;2023-08-20T02:37:43;12.10;;;9.52;;
1701;SDS011;848;48.354;10.064;2023-08-20T02:40:10;12.45;;;9.90;;
1701;SDS011;848;48.354;10.064;2023-08-20T02:42:39;11.02;;;9.88;;
1701;SDS011;848;48.354;10.064;2023-08-20T02:45:06;11.45;;;9.90;;
1701;SDS011;848;48.354;10.064;2023-08-20T02:47:34;10.57;;;9.40;;
1701;SDS011;848;48.354;10.064;2023-08-20T02:50:02;11.27;;;9.18;;
1701;SDS011;848;48.354;10.064;2023-08-20T02:52:29;12.27;;;9.30;;
1701;SDS011;848;48.354;10.064;2023-08-20T02:54:57;12.10;;;9.80;;
1701;SDS011;848;48.354;10.064;2023-08-20T02:57:24;11.70;;;8.93;;
1701;SDS011;848;48.354;10.064;2023-08-20T02:59:51;13.15;;;10.88;;
1701;SDS011;848;48.354;10.064;2023-08-20T03:02:18;10.77;;;9.45;;
1701;SDS011;848;48.354;10.064;2023-08-20T03:04:45;15.63;;;9.98;;
1701;SDS011;848;48.354;10.064;2023-08-20T03:07:12;15.70;;;9.20;;
1701;SDS011;848;48.354;10.064;2023-08-20T03:09:38;11.52;;;9.75;;
1701;SDS011;848;48.354;10.064;2023-08-20T03:12:07;11.98;;;10.73;;
1701;SDS011;848;48.354;10.064;2023-08-20T03:14:34;12.15;;;10.98;;
1701;SDS011;848;48.354;10.064;2023-08-20T03:17:01;12.02;;;10.30;;
1701;SDS011;848;48.354;10.064;2023-08-20T03:19:29;11.52;;;10.18;;
1701;SDS011;848;48.354;10.064;2023-08-20T03:21:59;11.50;;;9.63;;
1701;SDS011;848;48.354;10.064;2023-08-20T03:24:26;13.70;;;10.77;;
1701;SDS011;848;48.354;10.064;2023-08-20T03:26:53;10.63;;;9.52;;
1701;SDS011;848;48.354;10.064;2023-08-20T03:29:21;10.48;;;9.23;;
1701;SDS011;848;48.354;10.064;2023-08-20T03:31:48;11.00;;;9.90;;
1701;SDS011;848;48.354;10.064;2023-08-20T03:34:15;12.50;;;10.85;;
1701;SDS011;848;48.354;10.064;2023-08-20T03:36:42;12.27;;;10.45;;
1701;SDS011;848;48.354;10.064;2023-08-20T03:39:09;12.07;;;9.93;;
1701;SDS011;848;48.354;10.064;2023-08-20T03:41:35;12.23;;;10.93;;
1701;SDS011;848;48.354;10.064;2023-08-20T03:44:02;11.45;;;10.45;;
1701;SDS011;848;48.354;10.064;2023-08-20T03:46:31;13.35;;;12.10;;
1701;SDS011;848;48.354;10.064;2023-08-20T03:48:58;10.75;;;9.65;;
1701;SDS011;848;48.354;10.064;2023-08-20T03:51:25;10.65;;;9.60;;
1701;SDS011;848;48.354;10.064;2023-08-20T03:53:52;10.73;;;9.68;;
1701;SDS011;848;48.354;10.064;2023-08-20T03:56:19;11.35;;;10.18;;
1701;SDS011;848;48.354;10.064;2023-08-20T03:58:45;12.32;;;10.63;;
1701;SDS011;848;48.354;10.064;2023-08-20T04:01:12;9.50;;;8.55;;
1701;SDS011;848;48.354;10.064;2023-08-20T04:03:41;11.02;;;9.85;;
1701;SDS011;848;48.354;10.064;2023-08-20T04:06:07;13.02;;;11.77;;
1701;SDS011;848;48.354;10.064;2023-08-20T04:08:34;14.07;;;12.10;;
1701;SDS011;848;48.354;10.064;2023-08-20T04:11:01;12.40;;;11.30;;
1701;SDS011;848;48.354;10.064;2023-08-20T04:13:28;13.38;;;10.85;;
1701;SDS011;848;48.354;10.064;2023-08-20T04:15:55;12.70;;;11.50;;
1701;SDS011;848;48.354;10.064;2023-08-20T04:18:22;11.63;;;10.55;;
1701;SDS011;848;48.354;10.064;2023-08-20T04:20:51;14.52;;;11.77;;
1701;SDS011;848;48.354;10.064;2023-08-20T04:23:18;12.05;;;10.00;;
1701;SDS011;848;48.354;10.064;2023-08-20T04:25:45;12.68;;;10.70;;
1701;SDS011;848;48.354;10.064;2023-08-20T04:28:12;13.38;;;10.77;;
1701;SDS011;848;48.354;10.064;2023-08-20T04:30:39;14.65;;;10.77;;
1701;SDS011;848;48.354;10.064;2023-08-20T04:33:06;10.82;;;9.73;;
1701;SDS011;848;48.354;10.064;2023-08-20T04:35:33;12.30;;;11.10;;
1701;SDS011;848;48.354;10.064;2023-08-20T04:38:01;11.05;;;9.90;;
1701;SDS011;848;48.354;10.064;2023-08-20T04:40:28;12.63;;;10.70;;
1701;SDS011;848;48.354;10.064;2023-08-20T04:42:56;11.23;;;10.05;;
1701;SDS011;848;48.354;10.064;2023-08-20T04:45:23;14.30;;;10.43;;
1701;SDS011;848;48.354;10.064;2023-08-20T04:47:50;11.82;;;10.55;;
1701;SDS011;848;48.354;10.064;2023-08-20T04:50:17;12.23;;;10.95;;
1701;SDS011;848;48.354;10.064;2023-08-20T04:52:44;12.63;;;10.68;;
1701;SDS011;848;48.354;10.064;2023-08-20T04:55:12;11.50;;;10.50;;
1701;SDS011;848;48.354;10.064;2023-08-20T04:57:40;12.95;;;11.40;;
1701;SDS011;848;48.354;10.064;2023-08-20T05:00:07;12.65;;;11.23;;
1701;SDS011;848;48.354;10.064;2023-08-20T05:02:35;13.50;;;10.43;;
1701;SDS011;848;48.354;10.064;2023-08-20T05:05:02;12.02;;;10.88;;
1701;SDS011;848;48.354;10.064;2023-08-20T05:07:30;13.98;;;12.48;;
1701;SDS011;848;48.354;10.064;2023-08-20T05:09:57;16.40;;;12.13;;
1701;SDS011;848;48.354;10.064;2023-08-20T05:12:25;16.58;;;11.40;;
1701;SDS011;848;48.354;10.064;2023-08-20T05:14:52;12.95;;;11.55;;
1701;SDS011;848;48.354;10.064;2023-08-20T05:17:19;13.32;;;12.02;;
1701;SDS011;848;48.354;10.064;2023-08-20T05:19:46;14.13;;;12.60;;
1701;SDS011;848;48.354;10.064;2023-08-20T05:22:13;13.38;;;12.07;;
1701;SDS011;848;48.354;10.064;2023-08-20T05:24:40;13.90;;;12.60;;
1701;SDS011;848;48.354;10.064;2023-08-20T05:27:07;14.30;;;13.00;;
1701;SDS011;848;48.354;10.064;2023-08-20T05:29:36;14.30;;;12.43;;
1701;SDS011;848;48.354;10.064;2023-08-20T05:32:04;15.13;;;13.52;;
1701;SDS011;848;48.354;10.064;2023-08-20T05:34:31;17.17;;;15.38;;
1701;SDS011;848;48.354;10.064;2023-08-20T05:36:58;25.45;;;19.85;;
1701;SDS011;848;48.354;10.064;2023-08-20T05:39:25;19.98;;;16.48;;
1701;SDS011;848;48.354;10.064;2023-08-20T05:41:52;18.63;;;15.40;;
1701;SDS011;848;48.354;10.064;2023-08-20T05:44:20;16.23;;;14.57;;
1701;SDS011;848;48.354;10.064;2023-08-20T05:46:48;14.98;;;13.38;;
1701;SDS011;848;48.354;10.064;2023-08-20T05:49:15;15.10;;;13.75;;
1701;SDS011;848;48.354;10.064;2023-08-20T05:51:42;17.15;;;13.40;;
1701;SDS011;848;48.354;10.064;2023-08-20T05:54:09;15.77;;;13.80;;
1701;SDS011;848;48.354;10.064;2023-08-20T05:56:36;14.55;;;13.05;;
1701;SDS011;848;48.354;10.064;2023-08-20T05:59:03;18.00;;;13.38;;
1701;SDS011;848;48.354;10.064;2023-08-20T06:01:29;16.23;;;13.35;;
1701;SDS011;848;48.354;10.064;2023-08-20T06:03:58;18.63;;;13.90;;
1701;SDS011;848;48.354;10.064;2023-08-20T06:06:26;14.18;;;12.88;;
1701;SDS011;848;48.354;10.064;2023-08-20T06:08:53;13.82;;;12.40;;
1701;SDS011;848;48.354;10.064;2023-08-20T06:11:20;15.48;;;13.35;;
1701;SDS011;848;48.354;10.064;2023-08-20T06:13:47;16.80;;;15.20;;
1701;SDS011;848;48.354;10.064;2023-08-20T06:16:14;14.68;;;13.23;;
1701;SDS011;848;48.354;10.064;2023-08-20T06:18:41;20.17;;;15.70;;
1701;SDS011;848;48.354;10.064;2023-08-20T06:21:09;26.98;;;17.42;;
1701;SDS011;848;48.354;10.064;2023-08-20T06:23:36;21.52;;;15.90;;
1701;SDS011;848;48.354;10.064;2023-08-20T06:26:03;20.58;;;16.77;;
1701;SDS011;848;48.354;10.064;2023-08-20T06:28:30;18.08;;;16.17;;
1701;SDS011;848;48.354;10.064;2023-08-20T06:30:57;16.80;;;15.30;;
1701;SDS011;848;48.354;10.064;2023-08-20T06:33:23;17.20;;;15.50;;
1701;SDS011;848;48.354;10.064;2023-08-20T06:35:50;16.17;;;14.70;;
1701;SDS011;848;48.354;10.064;2023-08-20T06:38:18;17.00;;;15.40;;
1701;SDS011;848;48.354;10.064;2023-08-20T06:40:45;15.60;;;13.97;;
1701;SDS011;848;48.354;10.064;2023-08-20T06:43:12;16.27;;;14.67;;
1701;SDS011;848;48.354;10.064;2023-08-20T06:45:39;17.73;;;15.97;;
1701;SDS011;848;48.354;10.064;2023-08-20T06:48:06;15.40;;;13.77;;
1701;SDS011;848;48.354;10.064;2023-08-20T06:50:33;15.70;;;14.20;;
1701;SDS011;848;48.354;10.064;2023-08-20T06:53:00;16.90;;;15.07;;
1701;SDS011;848;48.354;10.064;2023-08-20T06:55:28;16.40;;;14.57;;
1701;SDS011;848;48.354;10.064;2023-08-20T06:57:55;16.40;;;14.77;;
1701;SDS011;848;48.354;10.064;2023-08-20T07:00:22;15.93;;;14.30;;
1701;SDS011;848;48.354;10.064;2023-08-20T07:02:49;18.07;;;15.10;;
1701;SDS011;848;48.354;10.064;2023-08-20T07:05:16;15.33;;;13.90;;
1701;SDS011;848;48.354;10.064;2023-08-20T07:07:43;16.30;;;14.73;;
1701;SDS011;848;48.354;10.064;2023-08-20T07:10:11;14.67;;;13.37;;
1701;SDS011;848;48.354;10.064;2023-08-20T07:12:39;17.67;;;14.40;;
1701;SDS011;848;48.354;10.064;2023-08-20T07:15:07;16.40;;;14.40;;
1701;SDS011;848;48.354;10.064;2023-08-20T07:17:34;15.20;;;13.77;;
1701;SDS011;848;48.354;10.064;2023-08-20T07:20:01;16.07;;;13.80;;
1701;SDS011;848;48.354;10.064;2023-08-20T07:22:29;15.80;;;14.27;;
1701;SDS011;848;48.354;10.064;2023-08-20T07:24:55;16.17;;;14.33;;
1701;SDS011;848;48.354;10.064;2023-08-20T07:27:22;14.63;;;13.33;;
1701;SDS011;848;48.354;10.064;2023-08-20T07:29:50;16.30;;;14.60;;
1701;SDS011;848;48.354;10.064;2023-08-20T07:32:17;15.20;;;13.70;;
1701;SDS011;848;48.354;10.064;2023-08-20T07:34:44;16.80;;;14.77;;
1701;SDS011;848;48.354;10.064;2023-08-20T07:37:11;15.17;;;12.97;;
1701;SDS011;848;48.354;10.064;2023-08-20T07:39:38;14.33;;;12.93;;
1701;SDS011;848;48.354;10.064;2023-08-20T07:42:05;14.97;;;13.43;;
1701;SDS011;848;48.354;10.064;2023-08-20T07:44:32;14.97;;;13.53;;
1701;SDS011;848;48.354;10.064;2023-08-20T07:47:01;15.50;;;14.00;;
1701;SDS011;848;48.354;10.064;2023-08-20T07:49:28;15.13;;;13.57;;
1701;SDS011;848;48.354;10.064;2023-08-20T07:51:54;16.57;;;14.43;;
1701;SDS011;848;48.354;10.064;2023-08-20T07:54:21;15.73;;;12.70;;
1701;SDS011;848;48.354;10.064;2023-08-20T07:56:48;15.50;;;12.50;;
1701;SDS011;848;48.354;10.064;2023-08-20T07:59:15;14.20;;;12.80;;
1701;SDS011;848;48.354;10.064;2023-08-20T08:01:42;15.77;;;14.07;;
1701;SDS011;848;48.354;10.064;2023-08-20T08:04:10;15.53;;;14.00;;
1701;SDS011;848;48.354;10.064;2023-08-20T08:06:37;15.87;;;14.10;;
1701;SDS011;848;48.354;10.064;2023-08-20T08:11:52;15.70;;;14.10;;
1701;SDS011;848;48.354;10.064;2023-08-20T08:14:18;14.80;;;13.40;;
1701;SDS011;848;48.354;10.064;2023-08-20T08:16:45;16.23;;;13.43;;
1701;SDS011;848;48.354;10.064;2023-08-20T08:19:14;19.20;;;14.20;;
1701;SDS011;848;48.354;10.064;2023-08-20T08:21:41;14.60;;;13.20;;
1701;SDS011;848;48.354;10.064;2023-08-20T08:24:08;15.60;;;14.13;;
1701;SDS011;848;48.354;10.064;2023-08-20T08:26:36;14.90;;;13.60;;
1701;SDS011;848;48.354;10.064;2023-08-20T08:29:03;13.93;;;12.63;;
1701;SDS011;848;48.354;10.064;2023-08-20T08:31:31;14.97;;;12.90;;
1701;SDS011;848;48.354;10.064;2023-08-20T08:33:58;13.67;;;11.70;;
1701;SDS011;848;48.354;10.064;2023-08-20T08:36:26;12.10;;;10.80;;
1701;SDS011;848;48.354;10.064;2023-08-20T08:38:53;15.53;;;11.50;;
1701;SDS011;848;48.354;10.064;2023-08-20T08:41:21;12.00;;;10.80;;
1701;SDS011;848;48.354;10.064;2023-08-20T08:43:49;13.23;;;10.63;;
1701;SDS011;848;48.354;10.064;2023-08-20T08:46:16;15.47;;;11.43;;
1701;SDS011;848;48.354;10.064;2023-08-20T08:48:45;13.70;;;10.70;;
1701;SDS011;848;48.354;10.064;2023-08-20T08:51:12;14.00;;;12.23;;
1701;SDS011;848;48.354;10.064;2023-08-20T08:53:41;16.97;;;11.90;;
1701;SDS011;848;48.354;10.064;2023-08-20T08:56:09;11.00;;;10.07;;
1701;SDS011;848;48.354;10.064;2023-08-20T08:58:36;11.37;;;10.13;;
1701;SDS011;848;48.354;10.064;2023-08-20T09:01:03;10.80;;;9.80;;
1701;SDS011;848;48.354;10.064;2023-08-20T09:03:30;13.40;;;11.20;;
1701;SDS011;848;48.354;10.064;2023-08-20T09:05:58;11.83;;;10.20;;
1701;SDS011;848;48.354;10.064;2023-08-20T09:08:29;12.47;;;11.30;;
1701;SDS011;848;48.354;10.064;2023-08-20T09:10:58;13.37;;;11.40;;
1701;SDS011;848;48.354;10.064;2023-08-20T09:13:27;12.67;;;11.37;;
1701;SDS011;848;48.354;10.064;2023-08-20T09:15:59;12.90;;;11.53;;
1701;SDS011;848;48.354;10.064;2023-08-20T09:18:30;11.47;;;10.40;;
1701;SDS011;848;48.354;10.064;2023-08-20T09:20:57;11.57;;;9.80;;
1701;SDS011;848;48.354;10.064;2023-08-20T09:23:26;16.87;;;13.00;;
1701;SDS011;848;48.354;10.064;2023-08-20T09:25:54;10.47;;;9.50;;
1701;SDS011;848;48.354;10.064;2023-08-20T09:28:23;11.33;;;10.27;;
1701;SDS011;848;48.354;10.064;2023-08-20T09:30:56;11.50;;;9.80;;
1701;SDS011;848;48.354;10.064;2023-08-20T09:33:26;13.07;;;10.47;;
1701;SDS011;848;48.354;10.064;2023-08-20T09:35:53;11.70;;;10.60;;
1701;SDS011;848;48.354;10.064;2023-08-20T09:38:21;11.53;;;10.33;;
1701;SDS011;848;48.354;10.064;2023-08-20T09:40:50;11.97;;;10.77;;
1701;SDS011;848;48.354;10.064;2023-08-20T09:43:24;11.93;;;9.73;;
1701;SDS011;848;48.354;10.064;2023-08-20T09:45:54;10.90;;;9.80;;
1701;SDS011;848;48.354;10.064;2023-08-20T09:48:22;10.17;;;9.20;;
1701;SDS011;848;48.354;10.064;2023-08-20T09:50:51;13.23;;;9.97;;
1701;SDS011;848;48.354;10.064;2023-08-20T09:53:22;11.90;;;10.80;;
1701;SDS011;848;48.354;10.064;2023-08-20T09:55:53;13.93;;;10.00;;
1701;SDS011;848;48.354;10.064;2023-08-20T09:58:26;10.33;;;9.30;;
1701;SDS011;848;48.354;10.064;2023-08-20T10:00:55;16.40;;;10.60;;
1701;SDS011;848;48.354;10.064;2023-08-20T10:03:22;11.10;;;10.03;;
1701;SDS011;848;48.354;10.064;2023-08-20T10:05:50;10.87;;;9.87;;
1701;SDS011;848;48.354;10.064;2023-08-20T10:08:17;12.57;;;10.47;;
1701;SDS011;848;48.354;10.064;2023-08-20T10:10:46;12.70;;;10.00;;
1701;SDS011;848;48.354;10.064;2023-08-20T10:13:13;11.53;;;10.13;;
1701;SDS011;848;48.354;10.064;2023-08-20T10:15:43;13.47;;;10.40;;
1701;SDS011;848;48.354;10.064;2023-08-20T10:18:11;9.93;;;8.93;;
1701;SDS011;848;48.354;10.064;2023-08-20T10:20:38;12.20;;;9.93;;
1701;SDS011;848;48.354;10.064;2023-08-20T10:23:06;16.60;;;11.33;;
1701;SDS011;848;48.354;10.064;2023-08-20T10:25:39;10.77;;;9.77;;
1701;SDS011;848;48.354;10.064;2023-08-20T10:28:12;11.50;;;10.40;;
1701;SDS011;848;48.354;10.064;2023-08-20T10:33:34;11.70;;;9.80;;
1701;SDS011;848;48.354;10.064;2023-08-20T10:36:08;10.67;;;8.37;;
1701;SDS011;848;48.354;10.064;2023-08-20T10:38:37;10.93;;;9.23;;
1701;SDS011;848;48.354;10.064;2023-08-20T10:41:07;9.93;;;8.93;;
1701;SDS011;848;48.354;10.064;2023-08-20T10:43:35;9.93;;;9.07;;
1701;SDS011;848;48.354;10.064;2023-08-20T10:46:08;9.80;;;9.00;;
1701;SDS011;848;48.354;10.064;2023-08-20T10:48:41;9.20;;;8.37;;
1701;SDS011;848;48.354;10.064;2023-08-20T10:51:09;8.80;;;8.00;;
1701;SDS011;848;48.354;10.064;2023-08-20T10:53:37;11.77;;;8.93;;
1701;SDS011;848;48.354;10.064;2023-08-20T10:56:12;9.20;;;8.40;;
1701;SDS011;848;48.354;10.064;2023-08-20T10:58:40;8.20;;;6.97;;
1701;SDS011;848;48.354;10.064;2023-08-20T11:01:13;8.97;;;8.07;;
1701;SDS011;848;48.354;10.064;2023-08-20T11:03:42;13.53;;;8.50;;
1701;SDS011;848;48.354;10.064;2023-08-20T11:06:10;8.83;;;8.03;;
1701;SDS011;848;48.354;10.064;2023-08-20T11:08:37;8.27;;;7.47;;
1701;SDS011;848;48.354;10.064;2023-08-20T11:11:04;9.67;;;8.80;;
1701;SDS011;848;48.354;10.064;2023-08-20T11:13:33;8.80;;;7.87;;
1701;SDS011;848;48.354;10.064;2023-08-20T11:16:01;8.63;;;7.73;;
1701;SDS011;848;48.354;10.064;2023-08-20T11:18:31;7.83;;;7.03;;
1701;SDS011;848;48.354;10.064;2023-08-20T11:20:59;10.07;;;7.40;;
1701;SDS011;848;48.354;10.064;2023-08-20T11:23:26;8.60;;;7.80;;
1701;SDS011;848;48.354;10.064;2023-08-20T11:25:54;7.63;;;6.83;;
1701;SDS011;848;48.354;10.064;2023-08-20T11:28:22;9.90;;;7.60;;
1701;SDS011;848;48.354;10.064;2023-08-20T11:30:49;9.10;;;7.00;;
1701;SDS011;848;48.354;10.064;2023-08-20T11:33:16;8.20;;;7.43;;
1701;SDS011;848;48.354;10.064;2023-08-20T11:35:45;7.63;;;6.57;;
1701;SDS011;848;48.354;10.064;2023-08-20T11:38:12;6.90;;;6.30;;
1701;SDS011;848;48.354;10.064;2023-08-20T11:40:40;7.50;;;6.70;;
1701;SDS011;848;48.354;10.064;2023-08-20T11:43:06;8.20;;;6.83;;
1701;SDS011;848;48.354;10.064;2023-08-20T11:45:43;8.70;;;6.70;;
1701;SDS011;848;48.354;10.064;2023-08-20T11:48:11;6.90;;;6.17;;
1701;SDS011;848;48.354;10.064;2023-08-20T11:50:38;11.07;;;7.13;;
1701;SDS011;848;48.354;10.064;2023-08-20T11:53:07;14.67;;;6.23;;
1701;SDS011;848;48.354;10.064;2023-08-20T11:55:34;8.70;;;6.80;;
1701;SDS011;848;48.354;10.064;2023-08-20T11:58:01;9.73;;;7.20;;
1701;SDS011;848;48.354;10.064;2023-08-20T12:00:30;7.30;;;6.13;;
1701;SDS011;848;48.354;10.064;2023-08-20T12:02:58;8.33;;;7.40;;
1701;SDS011;848;48.354;10.064;2023-08-20T12:05:28;11.33;;;6.50;;
1701;SDS011;848;48.354;10.064;2023-08-20T12:07:55;9.60;;;6.40;;
1701;SDS011;848;48.354;10.064;2023-08-20T12:10:24;12.90;;;6.27;;
1701;SDS011;848;48.354;10.064;2023-08-20T12:12:52;7.23;;;6.53;;
1701;SDS011;848;48.354;10.064;2023-08-20T12:15:21;9.07;;;6.47;;
1701;SDS011;848;48.354;10.064;2023-08-20T12:18:00;7.73;;;6.27;;
1701;SDS011;848;48.354;10.064;2023-08-20T12:20:29;10.87;;;6.40;;
1701;SDS011;848;48.354;10.064;2023-08-20T12:23:01;14.23;;;7.03;;
1701;SDS011;848;48.354;10.064;2023-08-20T12:25:32;8.00;;;7.20;;
1701;SDS011;848;48.354;10.064;2023-08-20T12:28:00;10.13;;;6.10;;
1701;SDS011;848;48.354;10.064;2023-08-20T12:30:28;8.43;;;6.80;;
1701;SDS011;848;48.354;10.064;2023-08-20T12:32:55;8.20;;;6.87;;
1701;SDS011;848;48.354;10.064;2023-08-20T12:35:22;8.00;;;7.30;;
1701;SDS011;848;48.354;10.064;2023-08-20T12:37:49;7.07;;;6.00;;
1701;SDS011;848;48.354;10.064;2023-08-20T12:40:16;6.67;;;6.07;;
1701;SDS011;848;48.354;10.064;2023-08-20T12:42:44;6.83;;;6.10;;
1701;SDS011;848;48.354;10.064;2023-08-20T12:45:11;7.67;;;6.90;;
1701;SDS011;848;48.354;10.064;2023-08-20T12:47:38;11.47;;;8.37;;
1701;SDS011;848;48.354;10.064;2023-08-20T12:50:06;8.67;;;6.17;;
1701;SDS011;848;48.354;10.064;2023-08-20T12:52:33;9.17;;;6.37;;
1701;SDS011;848;48.354;10.064;2023-08-20T12:55:00;6.20;;;5.60;;
1701;SDS011;848;48.354;10.064;2023-08-20T12:57:28;9.30;;;6.80;;
1701;SDS011;848;48.354;10.064;2023-08-20T12:59:56;7.93;;;5.80;;
1701;SDS011;848;48.354;10.064;2023-08-20T13:02:24;7.30;;;6.00;;
1701;SDS011;848;48.354;10.064;2023-08-20T13:04:52;12.93;;;7.07;;
1701;SDS011;848;48.354;10.064;2023-08-20T13:07:19;7.43;;;6.73;;
1701;SDS011;848;48.354;10.064;2023-08-20T13:09:47;8.40;;;5.90;;
1701;SDS011;848;48.354;10.064;2023-08-20T13:14:45;7.30;;;6.60;;
1701;SDS011;848;48.354;10.064;2023-08-20T13:17:14;7.13;;;6.43;;
1701;SDS011;848;48.354;10.064;2023-08-20T13:19:42;6.60;;;6.00;;
1701;SDS011;848;48.354;10.064;2023-08-20T13:22:09;9.87;;;5.30;;
1701;SDS011;848;48.354;10.064;2023-08-20T13:24:36;7.13;;;6.33;;
1701;SDS011;848;48.354;10.064;2023-08-20T13:27:03;8.07;;;5.90;;
1701;SDS011;848;48.354;10.064;2023-08-20T13:29:30;7.57;;;6.73;;
1701;SDS011;848;48.354;10.064;2023-08-20T13:31:57;9.40;;;5.80;;
1701;SDS011;848;48.354;10.064;2023-08-20T13:34:25;9.20;;;6.33;;
1701;SDS011;848;48.354;10.064;2023-08-20T13:36:52;15.03;;;6.60;;
1701;SDS011;848;48.354;10.064;2023-08-20T13:39:19;9.37;;;6.70;;
1701;SDS011;848;48.354;10.064;2023-08-20T13:41:48;7.80;;;6.73;;
1701;SDS011;848;48.354;10.064;2023-08-20T13:44:15;7.37;;;6.67;;
1701;SDS011;848;48.354;10.064;2023-08-20T13:46:42;7.83;;;6.17;;
1701;SDS011;848;48.354;10.064;2023-08-20T13:49:09;12.23;;;7.27;;
1701;SDS011;848;48.354;10.064;2023-08-20T13:51:38;9.40;;;6.40;;
1701;SDS011;848;48.354;10.064;2023-08-20T13:54:05;10.53;;;6.40;;
1701;SDS011;848;48.354;10.064;2023-08-20T13:56:32;8.13;;;7.17;;
1701;SDS011;848;48.354;10.064;2023-08-20T13:59:00;8.70;;;6.63;;
1701;SDS011;848;48.354;10.064;2023-08-20T14:01:27;6.93;;;6.33;;
1701;SDS011;848;48.354;10.064;2023-08-20T14:03:54;15.13;;;6.60;;
1701;SDS011;848;48.354;10.064;2023-08-20T14:06:21;10.10;;;6.90;;
1701;SDS011;848;48.354;10.064;2023-08-20T14:08:50;7.40;;;6.07;;
1701;SDS011;848;48.354;10.064;2023-08-20T14:11:16;7.27;;;6.10;;
1701;SDS011;848;48.354;10.064;2023-08-20T14:13:43;10.10;;;6.40;;
1701;SDS011;848;48.354;10.064;2023-08-20T14:16:10;10.97;;;6.23;;
1701;SDS011;848;48.354;10.064;2023-08-20T14:18:37;7.93;;;6.30;;
1701;SDS011;848;48.354;10.064;2023-08-20T14:21:04;7.93;;;6.20;;
1701;SDS011;848;48.354;10.064;2023-08-20T14:23:31;9.70;;;5.57;;
1701;SDS011;848;48.354;10.064;2023-08-20T14:26:01;6.30;;;5.37;;
1701;SDS011;848;48.354;10.064;2023-08-20T14:28:30;6.77;;;6.27;;
1701;SDS011;848;48.354;10.064;2023-08-20T14:30:57;6.37;;;5.77;;
1701;SDS011;848;48.354;10.064;2023-08-20T14:33:28;8.17;;;6.37;;
1701;SDS011;848;48.354;10.064;2023-08-20T14:35:55;8.60;;;6.37;;
1701;SDS011;848;48.354;10.064;2023-08-20T14:38:22;6.87;;;6.33;;
1701;SDS011;848;48.354;10.064;2023-08-20T14:40:49;8.87;;;5.97;;
1701;SDS011;848;48.354;10.064;2023-08-20T14:43:17;6.27;;;5.67;;
1701;SDS011;848;48.354;10.064;2023-08-20T14:45:45;8.73;;;6.27;;
1701;SDS011;848;48.354;10.064;2023-08-20T14:48:11;6.27;;;5.77;;
1701;SDS011;848;48.354;10.064;2023-08-20T14:50:38;7.50;;;6.60;;
1701;SDS011;848;48.354;10.064;2023-08-20T14:53:05;6.80;;;6.10;;
1701;SDS011;848;48.354;10.064;2023-08-20T14:55:32;9.10;;;5.60;;
1701;SDS011;848;48.354;10.064;2023-08-20T14:57:59;6.47;;;5.87;;
1701;SDS011;848;48.354;10.064;2023-08-20T15:00:27;5.73;;;5.10;;
1701;SDS011;848;48.354;10.064;2023-08-20T15:02:54;9.57;;;5.87;;
1701;SDS011;848;48.354;10.064;2023-08-20T15:05:21;6.00;;;5.30;;
1701;SDS011;848;48.354;10.064;2023-08-20T15:07:48;11.37;;;5.80;;
1701;SDS011;848;48.354;10.064;2023-08-20T15:10:15;6.50;;;5.73;;
1701;SDS011;848;48.354;10.064;2023-08-20T15:12:42;10.43;;;7.47;;